createdAt,value
2022-08-26T00:00:39.057Z,58.73
2022-08-26T00:03:35.144Z,58.78
2022-08-26T00:06:31.578Z,58.81
2022-08-26T00:09:30.045Z,58.70
2022-08-26T00:12:31.576Z,58.70
2022-08-26T00:15:40.547Z,58.91
2022-08-26T00:18:38.670Z,58.79
2022-08-26T00:21:38.858Z,58.82
2022-08-26T00:24:37.799Z,58.81
2022-08-26T00:27:34.221Z,58.70
2022-08-26T00:30:31.496Z,58.70
2022-08-26T00:33:26.142Z,58.61
2022-08-26T00:36:20.685Z,58.51
2022-08-26T00:39:15.240Z,58.41
2022-08-26T00:42:10.130Z,58.35
2022-08-26T00:45:10.202Z,58.37
2022-08-26T00:48:06.051Z,58.35
2022-08-26T00:51:02.398Z,58.29
2022-08-26T00:54:10.801Z,58.31
2022-08-26T00:57:16.267Z,58.30
2022-08-26T01:00:18.584Z,58.16
2022-08-26T01:03:12.705Z,58.20
2022-08-26T01:06:24.071Z,58.14
2022-08-26T01:09:34.997Z,58.20
2022-08-26T01:12:48.859Z,58.16
2022-08-26T01:15:49.886Z,58.04
2022-08-26T01:18:49.980Z,57.79
2022-08-26T01:21:46.755Z,57.74
2022-08-26T01:24:41.548Z,57.52
2022-08-26T01:27:37.058Z,57.51
2022-08-26T01:30:31.453Z,57.39
2022-08-26T01:33:39.941Z,57.35
2022-08-26T01:36:36.039Z,57.24
2022-08-26T01:39:34.523Z,57.07
2022-08-26T01:42:30.762Z,57.08
2022-08-26T01:45:29.059Z,57.02
2022-08-26T01:48:25.565Z,56.91
2022-08-26T01:51:16.330Z,56.79
2022-08-26T01:54:12.135Z,56.69
2022-08-26T01:57:09.203Z,56.88
2022-08-26T02:00:06.822Z,56.77
2022-08-26T02:03:17.914Z,56.66
2022-08-26T02:06:11.731Z,56.48
2022-08-26T02:09:09.503Z,56.41
2022-08-26T02:12:04.579Z,56.35
2022-08-26T02:15:02.382Z,56.39
2022-08-26T02:18:00.959Z,56.35
2022-08-26T02:20:53.992Z,56.09
2022-08-26T02:23:46.774Z,56.11
2022-08-26T02:26:39.008Z,56.09
2022-08-26T02:29:38.559Z,55.89
2022-08-26T02:32:29.871Z,56.07
2022-08-26T02:35:21.408Z,55.85
2022-08-26T02:38:11.769Z,55.80
2022-08-26T02:41:02.853Z,55.77
2022-08-26T02:43:52.803Z,55.96
2022-08-26T02:46:47.159Z,55.78
2022-08-26T02:49:47.254Z,55.81
2022-08-26T02:52:39.639Z,55.65
2022-08-26T02:55:32.452Z,55.70
2022-08-26T02:58:26.716Z,55.68
2022-08-26T03:01:26.550Z,55.50
2022-08-26T03:04:20.642Z,55.47
2022-08-26T03:07:21.785Z,55.45
2022-08-26T03:10:18.531Z,55.42
2022-08-26T03:13:12.514Z,55.29
2022-08-26T03:16:11.002Z,55.38
2022-08-26T03:19:05.285Z,55.35
2022-08-26T03:22:02.233Z,55.29
2022-08-26T03:24:55.795Z,55.37
2022-08-26T03:27:51.910Z,55.16
2022-08-26T03:30:45.763Z,55.16
2022-08-26T03:33:40.051Z,55.11
2022-08-26T03:36:35.093Z,55.01
2022-08-26T03:39:28.756Z,55.07
2022-08-26T03:42:24.384Z,54.76
2022-08-26T03:45:18.991Z,54.72
2022-08-26T03:48:15.720Z,54.80
2022-08-26T03:51:18.299Z,54.82
2022-08-26T03:54:14.644Z,54.73
2022-08-26T03:57:09.781Z,54.86
2022-08-26T04:00:18.455Z,54.80
2022-08-26T04:03:18.913Z,54.53
2022-08-26T04:06:14.637Z,54.71
2022-08-26T04:09:22.741Z,54.53
2022-08-26T04:12:21.619Z,54.33
2022-08-26T04:15:22.576Z,54.38
2022-08-26T04:18:18.023Z,54.44
2022-08-26T04:21:17.304Z,54.34
2022-08-26T04:24:21.817Z,54.22
2022-08-26T04:27:20.646Z,54.25
2022-08-26T04:30:16.703Z,54.35
2022-08-26T04:33:12.809Z,54.06
2022-08-26T04:36:08.457Z,54.07
2022-08-26T04:39:04.479Z,54.12
2022-08-26T04:41:58.045Z,54.06
2022-08-26T04:44:55.746Z,54.04
2022-08-26T04:47:48.611Z,54.07
2022-08-26T04:50:49.717Z,54.17
2022-08-26T04:53:45.684Z,54.06
2022-08-26T04:56:49.522Z,54.22
2022-08-26T04:59:48.845Z,53.98
2022-08-26T05:02:47.077Z,53.96
2022-08-26T05:05:47.875Z,53.88
2022-08-26T05:08:43.830Z,53.99
2022-08-26T05:11:40.702Z,53.80
2022-08-26T05:14:44.991Z,53.81
2022-08-26T05:17:44.504Z,53.69
2022-08-26T05:20:54.012Z,53.16
2022-08-26T05:23:51.687Z,52.36
2022-08-26T05:26:53.055Z,52.25
2022-08-26T05:29:51.532Z,52.18
2022-08-26T05:32:55.322Z,51.92
2022-08-26T05:35:58.253Z,52.08
2022-08-26T05:38:53.869Z,51.78
2022-08-26T05:41:54.640Z,51.73
2022-08-26T05:44:55.581Z,51.79
2022-08-26T05:47:55.074Z,51.57
2022-08-26T05:50:55.304Z,51.89
2022-08-26T05:54:01.749Z,51.62
2022-08-26T05:57:08.876Z,51.44
2022-08-26T06:00:15.825Z,51.13
2022-08-26T06:03:16.198Z,50.54
2022-08-26T06:06:20.667Z,50.36
2022-08-26T06:09:29.117Z,50.62
2022-08-26T06:12:34.852Z,50.46
2022-08-26T06:15:36.634Z,50.25
2022-08-26T06:18:39.605Z,50.12
2022-08-26T06:21:39.904Z,50.23
2022-08-26T06:25:02.901Z,50.23
2022-08-26T06:28:07.951Z,50.34
2022-08-26T06:31:12.534Z,50.55
2022-08-26T06:34:10.717Z,50.70
2022-08-26T06:37:16.704Z,50.42
2022-08-26T06:40:14.326Z,50.63
2022-08-26T06:43:21.576Z,50.70
2022-08-26T06:46:33.092Z,50.79
2022-08-26T06:49:28.192Z,50.58
2022-08-26T06:52:25.918Z,50.27
2022-08-26T06:55:26.887Z,50.27
2022-08-26T06:58:29.342Z,50.48
2022-08-26T07:01:43.755Z,50.51
2022-08-26T07:04:51.201Z,50.66
2022-08-26T07:07:58.804Z,50.82
2022-08-26T07:11:06.144Z,50.90
2022-08-26T07:14:21.926Z,51.04
2022-08-26T07:17:30.148Z,51.20
2022-08-26T07:20:28.811Z,51.00
2022-08-26T07:23:27.969Z,51.05
2022-08-26T07:26:30.491Z,51.49
2022-08-26T07:29:33.164Z,51.60
2022-08-26T07:32:39.244Z,51.22
2022-08-26T07:35:43.157Z,51.32
2022-08-26T07:38:40.110Z,51.16
2022-08-26T07:41:38.309Z,51.12
2022-08-26T07:44:49.189Z,50.94
2022-08-26T07:47:49.616Z,51.02
2022-08-26T07:50:58.262Z,51.14
2022-08-26T07:54:05.876Z,50.94
2022-08-26T07:57:05.104Z,51.00
2022-08-26T08:00:16.080Z,51.19
2022-08-26T08:03:16.619Z,51.13
2022-08-26T08:06:27.122Z,51.35
2022-08-26T08:09:26.773Z,51.07
2022-08-26T08:12:26.188Z,51.09
2022-08-26T08:15:33.553Z,51.23
2022-08-26T08:18:37.176Z,50.89
2022-08-26T08:21:44.789Z,50.56
2022-08-26T08:24:52.984Z,50.31
2022-08-26T08:28:51.152Z,49.92
2022-08-26T08:32:03.869Z,49.97
2022-08-26T08:35:00.838Z,50.39
2022-08-26T08:38:29.348Z,50.92
2022-08-26T08:42:34.817Z,51.60
2022-08-26T08:45:56.265Z,51.64
2022-08-26T08:49:04.510Z,51.68
2022-08-26T08:52:16.417Z,51.01
2022-08-26T08:55:18.081Z,50.58
2022-08-26T08:58:25.649Z,50.24
2022-08-26T09:01:54.062Z,50.08
2022-08-26T09:05:15.295Z,49.89
2022-08-26T09:08:31.609Z,49.53
2022-08-26T09:11:41.948Z,49.78
2022-08-26T09:14:45.853Z,49.18
2022-08-26T09:17:52.212Z,48.82
2022-08-26T09:20:54.178Z,48.62
2022-08-26T09:24:00.320Z,48.20
2022-08-26T09:27:01.724Z,47.85
2022-08-26T09:29:59.982Z,47.52
2022-08-26T09:33:11.069Z,47.61
2022-08-26T09:36:27.133Z,47.38
2022-08-26T09:39:33.573Z,47.27
2022-08-26T09:42:49.536Z,47.54
2022-08-26T09:46:00.322Z,47.34
2022-08-26T09:49:06.095Z,46.86
2022-08-26T09:52:26.774Z,46.92
2022-08-26T09:55:27.617Z,47.35
2022-08-26T09:58:38.173Z,47.37
2022-08-26T10:01:51.394Z,47.88
2022-08-26T10:05:08.998Z,47.81
2022-08-26T10:08:24.344Z,47.96
2022-08-26T10:11:58.261Z,48.05
2022-08-26T10:14:57.469Z,48.42
2022-08-26T10:17:59.108Z,48.23
2022-08-26T10:21:07.415Z,48.40
2022-08-26T10:24:04.348Z,48.69
2022-08-26T10:27:09.320Z,48.64
2022-08-26T10:30:19.044Z,48.47
2022-08-26T10:33:17.955Z,48.25
2022-08-26T10:36:58.648Z,48.03
2022-08-26T10:40:04.336Z,48.27
2022-08-26T10:43:12.252Z,48.60
2022-08-26T10:46:28.285Z,48.81
2022-08-26T10:49:26.360Z,48.77
2022-08-26T10:52:31.625Z,48.55
2022-08-26T10:55:46.292Z,48.16
2022-08-26T10:58:57.449Z,47.83
2022-08-26T11:01:57.157Z,48.01
2022-08-26T11:04:57.824Z,47.99
2022-08-26T11:08:32.430Z,47.85
2022-08-26T11:11:50.764Z,48.14
2022-08-26T11:14:59.047Z,48.01
2022-08-26T11:18:08.220Z,48.43
2022-08-26T11:22:10.004Z,48.23
2022-08-26T11:25:27.843Z,47.98
2022-08-26T11:28:37.685Z,47.77
2022-08-26T11:31:59.397Z,47.69
2022-08-26T11:35:04.906Z,46.85
2022-08-26T11:38:06.005Z,46.44
2022-08-26T11:41:15.161Z,46.44
2022-08-26T11:44:28.451Z,46.01
2022-08-26T11:47:40.337Z,45.65
2022-08-26T11:50:42.525Z,45.50
2022-08-26T11:53:47.086Z,45.59
2022-08-26T11:56:48.145Z,45.61
2022-08-26T11:59:51.506Z,45.57
2022-08-26T12:02:59.325Z,44.61
2022-08-26T12:06:05.595Z,44.41
2022-08-26T12:09:15.425Z,45.04
2022-08-26T12:12:25.072Z,45.44
2022-08-26T12:15:31.240Z,46.04
2022-08-26T12:18:40.285Z,46.02
2022-08-26T12:21:39.274Z,45.88
2022-08-26T12:24:48.361Z,45.91
2022-08-26T12:27:55.570Z,46.10
2022-08-26T12:31:09.469Z,46.23
2022-08-26T12:34:17.895Z,46.58
2022-08-26T12:37:24.244Z,47.00
2022-08-26T12:40:47.401Z,47.41
2022-08-26T12:43:58.268Z,47.46
2022-08-26T12:47:17.963Z,47.62
2022-08-26T12:50:24.596Z,47.81
2022-08-26T12:53:30.097Z,47.95
2022-08-26T12:56:44.363Z,48.06
2022-08-26T12:59:49.185Z,48.35
2022-08-26T13:03:09.543Z,48.49
2022-08-26T13:06:40.347Z,48.46
2022-08-26T13:10:04.402Z,48.62
2022-08-26T13:13:16.353Z,48.95
2022-08-26T13:16:36.485Z,48.91
2022-08-26T13:19:52.591Z,48.97
2022-08-26T13:22:53.859Z,49.03
2022-08-26T13:26:16.179Z,49.42
2022-08-26T13:29:28.676Z,49.39
2022-08-26T13:32:32.050Z,49.67
2022-08-26T13:35:36.191Z,49.56
2022-08-26T13:38:48.416Z,49.66
2022-08-26T13:42:05.405Z,49.61
2022-08-26T13:45:19.171Z,49.72
2022-08-26T13:48:23.329Z,49.54
2022-08-26T13:51:29.422Z,49.55
2022-08-26T13:54:36.397Z,49.39
2022-08-26T13:57:35.249Z,49.30
2022-08-26T14:00:40.233Z,49.21
2022-08-26T14:03:40.266Z,49.22
2022-08-26T14:06:39.918Z,49.23
2022-08-26T14:09:45.881Z,49.13
2022-08-26T14:12:54.696Z,49.13
2022-08-26T14:16:03.760Z,48.90
2022-08-26T14:19:01.572Z,48.68
2022-08-26T14:22:09.436Z,48.87
2022-08-26T14:25:21.410Z,48.87
2022-08-26T14:28:19.655Z,48.58
2022-08-26T14:31:19.496Z,48.52
2022-08-26T14:34:16.056Z,48.85
2022-08-26T14:37:15.138Z,48.52
2022-08-26T14:40:20.297Z,48.66
2022-08-26T14:43:28.279Z,48.68
2022-08-26T14:46:30.320Z,48.52
2022-08-26T14:49:34.117Z,48.52
2022-08-26T14:52:56.397Z,48.52
2022-08-26T14:56:02.172Z,48.13
2022-08-26T14:58:58.293Z,47.98
2022-08-26T15:01:58.477Z,47.66
2022-08-26T15:05:04.464Z,47.87
2022-08-26T15:08:08.509Z,47.80
2022-08-26T15:11:18.762Z,47.36
2022-08-26T15:14:32.954Z,47.49
2022-08-26T15:17:33.268Z,47.18
2022-08-26T15:20:48.473Z,46.93
2022-08-26T15:23:47.845Z,46.74
2022-08-26T15:26:47.215Z,46.33
2022-08-26T15:29:57.466Z,46.52
2022-08-26T15:32:57.431Z,46.64
2022-08-26T15:36:03.701Z,46.49
2022-08-26T15:38:59.157Z,46.32
2022-08-26T15:42:05.484Z,46.11
2022-08-26T15:45:08.626Z,46.41
2022-08-26T15:48:07.188Z,46.50
2022-08-26T15:51:09.940Z,46.40
2022-08-26T15:54:17.573Z,46.32
2022-08-26T15:57:19.793Z,46.39
2022-08-26T16:00:32.490Z,46.28
2022-08-26T16:03:33.367Z,46.40
2022-08-26T16:06:42.511Z,46.58
2022-08-26T16:09:38.722Z,46.45
2022-08-26T16:12:39.352Z,46.50
2022-08-26T16:15:41.725Z,46.38
2022-08-26T16:18:43.386Z,46.53
2022-08-26T16:21:39.464Z,46.23
2022-08-26T16:24:43.038Z,46.68
2022-08-26T16:27:55.333Z,46.84
2022-08-26T16:30:52.506Z,46.87
2022-08-26T16:34:08.078Z,46.76
2022-08-26T16:37:09.578Z,47.06
2022-08-26T16:40:23.536Z,47.03
2022-08-26T16:43:28.480Z,46.99
2022-08-26T16:46:39.702Z,46.89
2022-08-26T16:49:47.284Z,46.72
2022-08-26T16:53:03.738Z,46.54
2022-08-26T16:56:33.763Z,46.77
2022-08-26T16:59:39.780Z,46.69
2022-08-26T17:02:38.439Z,46.54
2022-08-26T17:05:44.773Z,46.66
2022-08-26T17:08:52.950Z,46.72
2022-08-26T17:12:02.506Z,46.65
2022-08-26T17:15:04.987Z,46.93
2022-08-26T17:18:12.488Z,46.77
2022-08-26T17:21:18.569Z,47.01
2022-08-26T17:24:18.615Z,46.94
2022-08-26T17:27:25.233Z,46.91
2022-08-26T17:30:30.994Z,46.97
2022-08-26T17:33:37.482Z,47.16
2022-08-26T17:36:41.797Z,47.23
2022-08-26T17:39:44.384Z,47.14
2022-08-26T17:42:45.429Z,47.11
2022-08-26T17:45:47.447Z,47.18
2022-08-26T17:48:56.205Z,47.16
2022-08-26T17:52:00.809Z,47.47
2022-08-26T17:55:05.773Z,47.43
2022-08-26T17:58:10.932Z,47.51
2022-08-26T18:01:16.086Z,47.47
2022-08-26T18:04:14.033Z,47.65
2022-08-26T18:07:27.050Z,47.67
2022-08-26T18:10:26.448Z,47.75
2022-08-26T18:13:35.829Z,47.91
2022-08-26T18:16:40.602Z,47.96
2022-08-26T18:19:40.528Z,47.95
2022-08-26T18:22:38.527Z,48.35
2022-08-26T18:25:38.953Z,48.42
2022-08-26T18:28:40.915Z,48.57
2022-08-26T18:31:46.377Z,48.55
2022-08-26T18:34:51.579Z,48.76
2022-08-26T18:37:48.551Z,48.86
2022-08-26T18:40:44.211Z,48.55
2022-08-26T18:44:01.595Z,48.65
2022-08-26T18:47:00.769Z,48.42
2022-08-26T18:50:06.607Z,48.64
2022-08-26T18:53:09.671Z,48.58
2022-08-26T18:56:15.419Z,48.53
2022-08-26T18:59:26.784Z,48.62
2022-08-26T19:02:38.290Z,48.71
2022-08-26T19:05:40.459Z,48.71
2022-08-26T19:08:49.804Z,48.57
2022-08-26T19:14:59.564Z,48.52
2022-08-26T19:18:06.615Z,48.67
2022-08-26T19:21:11.386Z,48.65
2022-08-26T19:24:12.022Z,48.85
2022-08-26T19:27:20.639Z,48.85
2022-08-26T19:30:32.680Z,48.91
2022-08-26T19:33:41.624Z,48.86
2022-08-26T19:36:47.226Z,49.01
2022-08-26T19:39:51.004Z,48.79
2022-08-26T19:43:05.790Z,48.94
2022-08-26T19:46:01.382Z,48.79
2022-08-26T19:49:02.179Z,48.96
2022-08-26T19:51:57.464Z,49.02
2022-08-26T19:54:56.759Z,49.06
2022-08-26T19:57:59.454Z,49.20
2022-08-26T20:01:02.638Z,49.16
2022-08-26T20:04:06.750Z,49.16
2022-08-26T20:07:08.935Z,49.25
2022-08-26T20:10:17.465Z,49.36
2022-08-26T20:13:27.688Z,49.49
2022-08-26T20:16:27.500Z,49.57
2022-08-26T20:19:45.996Z,49.55
2022-08-26T20:22:53.280Z,49.69
2022-08-26T20:25:57.705Z,49.95
2022-08-26T20:29:06.546Z,50.11
2022-08-26T20:32:09.373Z,50.15
2022-08-26T20:35:27.658Z,50.23
2022-08-26T20:38:33.743Z,50.27
2022-08-26T20:41:36.454Z,50.27
2022-08-26T20:44:54.525Z,50.15
2022-08-26T20:48:01.548Z,50.07
2022-08-26T20:51:05.712Z,50.01
2022-08-26T20:54:08.692Z,50.33
2022-08-26T20:57:11.648Z,50.34
2022-08-26T21:00:19.505Z,50.28
2022-08-26T21:03:40.716Z,50.47
2022-08-26T21:06:52.856Z,50.36
2022-08-26T21:10:00.943Z,50.34
2022-08-26T21:13:06.538Z,50.38
2022-08-26T21:16:08.683Z,50.41
2022-08-26T21:19:03.357Z,50.65
2022-08-26T21:22:12.714Z,50.56
2022-08-26T21:25:15.429Z,50.45
2022-08-26T21:28:11.534Z,50.40
2022-08-26T21:31:09.038Z,50.55
2022-08-26T21:34:04.233Z,50.50
2022-08-26T21:37:15.314Z,50.57
2022-08-26T21:40:14.848Z,50.68
2022-08-26T21:43:09.747Z,50.45
2022-08-26T21:46:20.250Z,50.56
2022-08-26T21:49:19.433Z,50.74
2022-08-26T21:52:22.263Z,50.76
2022-08-26T21:55:17.373Z,50.53
2022-08-26T21:58:16.588Z,50.63
2022-08-26T22:01:19.911Z,50.62
2022-08-26T22:04:21.708Z,50.76
2022-08-26T22:07:24.744Z,50.65
2022-08-26T22:10:18.299Z,50.79
2022-08-26T22:13:18.016Z,50.75
2022-08-26T22:16:19.786Z,50.80
2022-08-26T22:19:17.578Z,50.84
2022-08-26T22:22:13.472Z,50.75
2022-08-26T22:25:09.401Z,50.69
2022-08-26T22:28:07.369Z,50.69
2022-08-26T22:31:15.404Z,50.82
2022-08-26T22:34:11.772Z,50.73
2022-08-26T22:37:05.785Z,50.74
2022-08-26T22:40:02.770Z,50.67
2022-08-26T22:43:00.367Z,50.55
2022-08-26T22:46:00.807Z,50.56
2022-08-26T22:48:56.358Z,50.52
2022-08-26T22:51:49.217Z,50.46
2022-08-26T22:54:42.969Z,50.56
2022-08-26T22:57:38.307Z,50.39
2022-08-26T23:00:32.627Z,50.49
2022-08-26T23:03:27.225Z,50.50
2022-08-26T23:06:22.338Z,50.34
2022-08-26T23:09:19.033Z,50.23
2022-08-26T23:12:14.959Z,50.28
2022-08-26T23:15:14.104Z,50.22
2022-08-26T23:18:11.128Z,50.17
2022-08-26T23:21:07.855Z,50.31
2022-08-26T23:24:02.446Z,50.16
2022-08-26T23:26:55.597Z,50.23
2022-08-26T23:29:47.624Z,50.09
2022-08-26T23:32:42.017Z,50.15
2022-08-26T23:35:34.820Z,50.19
2022-08-26T23:38:26.491Z,50.11
2022-08-26T23:41:20.279Z,50.07
2022-08-26T23:44:15.060Z,50.30
2022-08-26T23:47:15.605Z,50.12
2022-08-26T23:50:10.707Z,50.07
2022-08-26T23:53:09.376Z,50.13
2022-08-26T23:56:03.288Z,50.16
2022-08-26T23:58:55.719Z,50.19
